Time;durP1;ratioP1;P1;durP2;ratioP2;P2;SDS_P1;SDS_P2;PMS_P1;PMS_P2;Temp;Humidity;BMP_temperature;BMP_pressure;BME280_temperature;BME280_humidity;BME280_pressure;Samples;Min_cycle;Max_cycle;Signal;HPM_P1;HPM_P2
2020/12/21 00:00:37;;;;;;;3.92;3.55;;;11.10;99.90;;;;;;5007052;28;20701;-25
2020/12/21 00:03:16;;;;;;;6.20;5.70;;;11.10;99.90;;;;;;5010078;28;20209;-26
2020/12/21 00:05:51;;;;;;;7.50;6.88;;;10.90;99.90;;;;;;5009294;28;20208;-26
2020/12/21 00:08:21;;;;;;;8.63;7.60;;;10.90;99.90;;;;;;5009003;28;20201;-26
2020/12/21 00:10:52;;;;;;;6.85;5.90;;;10.80;99.90;;;;;;5005660;28;20237;-26
2020/12/21 00:13:24;;;;;;;7.53;6.60;;;10.80;99.90;;;;;;5009395;28;20200;-26
2020/12/21 00:15:54;;;;;;;631.65;114.47;;;10.90;99.90;;;;;;5009299;28;20693;-26
2020/12/21 00:18:25;;;;;;;363.23;60.60;;;11.00;99.90;;;;;;5009770;28;20211;-26
2020/12/21 00:20:55;;;;;;;38.67;12.32;;;11.10;99.90;;;;;;5009909;28;20652;-26
2020/12/21 00:23:25;;;;;;;7.50;6.90;;;11.00;99.90;;;;;;5014571;28;20675;-26
2020/12/21 00:25:56;;;;;;;13.68;12.48;;;11.00;99.90;;;;;;5001064;28;20266;-26
2020/12/21 00:28:26;;;;;;;17.65;16.05;;;10.90;99.90;;;;;;5009555;28;20614;-26
2020/12/21 00:30:56;;;;;;;7.72;7.00;;;10.80;99.90;;;;;;5009989;28;20521;-27
2020/12/21 00:33:35;;;;;;;6.28;5.75;;;10.90;99.90;;;;;;4998546;28;20199;-26
2020/12/21 00:36:07;;;;;;;7.07;6.40;;;10.90;99.90;;;;;;5007218;28;20709;-25
2020/12/21 00:38:37;;;;;;;6.97;6.28;;;10.80;99.90;;;;;;5009636;28;20211;-25
2020/12/21 00:41:10;;;;;;;7.97;7.00;;;10.70;99.90;;;;;;5005269;28;20238;-25
2020/12/21 00:43:40;;;;;;;7.47;6.88;;;10.60;99.90;;;;;;5009336;28;20192;-26
2020/12/21 00:46:14;;;;;;;7.38;6.78;;;10.60;99.90;;;;;;5009872;28;20752;-26
2020/12/21 00:48:45;;;;;;;8.80;7.90;;;10.70;99.90;;;;;;5008917;28;20191;-26
2020/12/21 00:51:15;;;;;;;7.53;6.60;;;10.80;99.90;;;;;;4996366;28;20201;-26
2020/12/21 00:53:46;;;;;;;6.63;6.13;;;10.80;99.90;;;;;;5010056;28;20318;-27
2020/12/21 00:56:19;;;;;;;10.32;7.47;;;10.80;99.90;;;;;;5009581;28;20256;-26
2020/12/21 00:58:50;;;;;;;9.18;8.27;;;10.80;99.90;;;;;;5009069;28;20249;-27
2020/12/21 01:01:21;;;;;;;8.88;7.97;;;10.70;99.90;;;;;;5009736;28;20270;-26
2020/12/21 01:04:01;;;;;;;8.05;7.40;;;10.70;99.90;;;;;;5008926;28;20250;-26
2020/12/21 01:06:32;;;;;;;7.85;7.15;;;10.50;99.90;;;;;;5009501;28;20238;-26
2020/12/21 01:09:02;;;;;;;7.22;6.63;;;10.50;99.90;;;;;;5009750;28;20208;-26
2020/12/21 01:11:33;;;;;;;7.57;6.90;;;10.60;99.90;;;;;;5009261;28;20248;-27
2020/12/21 01:14:03;;;;;;;8.93;8.07;;;10.60;99.90;;;;;;5009393;28;20192;-26
2020/12/21 01:16:33;;;;;;;8.95;8.25;;;10.50;99.90;;;;;;5009425;28;20295;-26
2020/12/21 01:19:03;;;;;;;9.68;8.80;;;10.50;99.90;;;;;;5009402;28;20560;-26
2020/12/21 01:21:33;;;;;;;9.88;8.98;;;10.60;99.90;;;;;;5009469;28;20244;-26
2020/12/21 01:24:03;;;;;;;10.40;9.40;;;10.60;99.90;;;;;;5009073;28;20209;-26
2020/12/21 01:26:34;;;;;;;10.80;9.80;;;10.70;99.90;;;;;;5007661;28;20673;-27
2020/12/21 01:29:05;;;;;;;12.90;11.70;;;10.70;99.90;;;;;;5009390;28;20259;-26
2020/12/21 01:31:35;;;;;;;12.82;11.52;;;10.70;99.90;;;;;;5009185;28;20212;-27
2020/12/21 01:34:14;;;;;;;20.65;18.95;;;10.70;99.90;;;;;;5009028;28;20273;-26
2020/12/21 01:36:44;;;;;;;14.95;13.73;;;10.70;99.90;;;;;;5000867;28;20280;-26
2020/12/21 01:39:14;;;;;;;17.08;15.52;;;10.70;99.90;;;;;;5007685;28;20214;-26
2020/12/21 01:41:45;;;;;;;18.40;16.80;;;10.70;99.90;;;;;;5008390;28;20250;-26
2020/12/21 01:44:15;;;;;;;17.85;16.35;;;10.60;99.90;;;;;;5009040;28;20200;-27
2020/12/21 01:46:45;;;;;;;17.58;16.08;;;10.50;99.90;;;;;;5009115;28;20214;-27
2020/12/21 01:49:16;;;;;;;22.40;20.50;;;10.50;99.90;;;;;;4998216;28;20303;-25
2020/12/21 01:51:46;;;;;;;26.58;24.17;;;10.50;99.90;;;;;;5009193;28;20224;-26
2020/12/21 01:54:17;;;;;;;24.15;21.95;;;10.60;99.90;;;;;;5009016;28;20294;-26
2020/12/21 01:56:51;;;;;;;19.75;17.95;;;10.50;99.90;;;;;;5008601;28;20282;-25
2020/12/21 01:59:22;;;;;;;20.63;18.92;;;10.50;99.90;;;;;;5010201;28;20250;-27
2020/12/21 02:01:52;;;;;;;20.63;18.63;;;10.40;99.90;;;;;;5012599;28;20241;-26
2020/12/21 02:04:32;;;;;;;20.17;18.25;;;10.40;99.90;;;;;;5012700;28;20627;-26
2020/12/21 02:07:03;;;;;;;20.95;18.95;;;10.40;99.90;;;;;;5012707;28;20200;-26
2020/12/21 02:09:35;;;;;;;20.55;18.67;;;10.40;99.90;;;;;;5012395;28;20205;-26
2020/12/21 02:12:07;;;;;;;20.25;18.30;;;10.30;99.90;;;;;;5008655;28;20234;-28
2020/12/21 02:14:37;;;;;;;21.83;19.77;;;10.30;99.90;;;;;;5012185;28;20201;-26
2020/12/21 02:17:08;;;;;;;21.05;18.95;;;10.30;99.90;;;;;;5013018;28;20209;-26
2020/12/21 02:19:38;;;;;;;23.05;20.90;;;10.40;99.90;;;;;;5012364;28;20217;-26
2020/12/21 02:22:11;;;;;;;23.88;21.60;;;10.40;99.90;;;;;;4992690;28;20216;-26
2020/12/21 02:24:42;;;;;;;26.25;23.17;;;10.40;99.90;;;;;;5001687;28;20183;-25
2020/12/21 02:27:12;;;;;;;93.55;41.72;;;10.50;99.90;;;;;;5012041;28;20567;-26
2020/12/21 02:29:43;;;;;;;27.20;24.77;;;10.50;99.90;;;;;;5009043;28;20635;-26
2020/12/21 02:32:13;;;;;;;513.85;93.95;;;10.60;99.90;;;;;;5012000;28;20204;-26
2020/12/21 02:34:54;;;;;;;1999.90;531.83;;;10.70;99.90;;;;;;5012112;28;20541;-27
2020/12/21 02:37:26;;;;;;;20.60;18.73;;;10.70;99.90;;;;;;5005878;28;20223;-27
2020/12/21 02:39:56;;;;;;;22.65;20.60;;;10.60;99.90;;;;;;5011189;28;20199;-27
2020/12/21 02:42:26;;;;;;;23.20;21.10;;;10.40;99.90;;;;;;5012245;28;20208;-26
2020/12/21 02:44:56;;;;;;;23.35;21.17;;;10.50;99.90;;;;;;5011398;28;20203;-27
2020/12/21 02:47:26;;;;;;;21.63;19.65;;;10.50;99.90;;;;;;5009171;28;20221;-27
2020/12/21 02:49:56;;;;;;;23.20;21.15;;;10.50;99.90;;;;;;5011121;28;20649;-27
2020/12/21 02:52:30;;;;;;;21.77;19.88;;;10.40;99.90;;;;;;5012366;28;20205;-26
2020/12/21 02:55:00;;;;;;;23.33;21.13;;;10.40;99.90;;;;;;5002091;28;20229;-26
2020/12/21 02:57:30;;;;;;;25.65;22.92;;;10.30;99.90;;;;;;5005550;28;20219;-26
2020/12/21 03:00:01;;;;;;;24.70;22.40;;;10.30;99.90;;;;;;5010012;28;20664;-26
2020/12/21 03:02:31;;;;;;;25.40;23.13;;;10.30;99.90;;;;;;4993839;28;20214;-25
2020/12/21 03:05:09;;;;;;;24.88;22.45;;;10.30;99.90;;;;;;5005912;28;20199;-26
2020/12/21 03:07:40;;;;;;;27.10;24.55;;;10.40;99.90;;;;;;5011161;28;20243;-26
2020/12/21 03:10:10;;;;;;;26.10;23.63;;;10.40;99.90;;;;;;5010709;28;20223;-26
2020/12/21 03:12:40;;;;;;;29.25;26.58;;;10.40;99.90;;;;;;5010166;28;20574;-26
2020/12/21 03:15:10;;;;;;;25.23;22.88;;;10.30;99.90;;;;;;5010789;28;20240;-25
2020/12/21 03:17:40;;;;;;;28.75;26.08;;;10.30;99.90;;;;;;5008470;28;20192;-26
2020/12/21 03:20:10;;;;;;;36.50;33.10;;;10.30;99.90;;;;;;5011013;28;20615;-26
2020/12/21 03:22:41;;;;;;;33.67;30.38;;;10.30;99.90;;;;;;5011388;28;20668;-26
2020/12/21 03:25:11;;;;;;;34.40;31.08;;;10.30;99.90;;;;;;5008461;28;20204;-26
2020/12/21 03:27:42;;;;;;;30.20;27.50;;;10.30;99.90;;;;;;5007421;28;20200;-26
2020/12/21 03:30:12;;;;;;;30.55;27.85;;;10.30;99.90;;;;;;5011018;28;20660;-26
2020/12/21 03:32:43;;;;;;;32.15;29.25;;;10.40;99.90;;;;;;5010964;28;20196;-26
2020/12/21 03:35:27;;;;;;;31.90;29.05;;;10.40;99.90;;;;;;5011063;28;20278;-26
2020/12/21 03:37:58;;;;;;;33.53;30.15;;;10.40;99.90;;;;;;5009464;28;20200;-25
2020/12/21 03:40:28;;;;;;;32.42;29.42;;;10.40;99.90;;;;;;4996965;28;20263;-26
2020/12/21 03:42:58;;;;;;;36.75;33.45;;;10.40;99.90;;;;;;5010338;28;20204;-26
2020/12/21 03:45:28;;;;;;;37.03;33.90;;;10.40;99.90;;;;;;5011229;28;20193;-26
2020/12/21 03:47:58;;;;;;;254.50;74.55;;;10.50;99.90;;;;;;5009276;28;20248;-26
2020/12/21 03:50:28;;;;;;;40.95;37.08;;;10.70;99.90;;;;;;5008149;28;20199;-26
2020/12/21 03:53:00;;;;;;;1830.30;328.45;;;10.60;99.90;;;;;;5010798;28;20208;-26
2020/12/21 03:55:31;;;;;;;41.70;37.97;;;10.70;99.90;;;;;;5010110;28;20220;-27
2020/12/21 03:58:01;;;;;;;40.13;36.42;;;10.80;99.90;;;;;;5009698;28;20206;-27
2020/12/21 04:00:31;;;;;;;42.40;38.60;;;10.70;99.90;;;;;;5010304;28;20224;-27
2020/12/21 04:03:01;;;;;;;42.38;38.30;;;10.60;99.90;;;;;;5010113;28;20199;-27
2020/12/21 04:05:46;;;;;;;45.95;41.53;;;10.60;99.90;;;;;;5010381;28;20652;-27
2020/12/21 04:08:17;;;;;;;40.60;36.85;;;10.60;99.90;;;;;;5005791;28;20203;-27
2020/12/21 04:10:48;;;;;;;39.15;35.17;;;10.60;99.90;;;;;;5009663;28;20260;-26
2020/12/21 04:13:18;;;;;;;38.85;35.45;;;10.50;99.90;;;;;;5009960;28;20197;-26
2020/12/21 04:16:05;;;;;;;44.08;39.67;;;10.50;99.90;;;;;;4996168;28;20234;-26
2020/12/21 04:18:35;;;;;;;42.97;39.08;;;10.50;99.90;;;;;;5009124;28;20300;-25
2020/12/21 04:21:10;;;;;;;43.05;38.97;;;10.50;99.90;;;;;;5009764;28;20225;-26
2020/12/21 04:23:42;;;;;;;43.80;39.70;;;10.40;99.90;;;;;;5009020;28;20209;-26
2020/12/21 04:26:12;;;;;;;43.17;39.13;;;10.40;99.90;;;;;;5002275;28;20583;-26
2020/12/21 04:28:44;;;;;;;42.10;38.17;;;10.50;99.90;;;;;;5008824;28;20632;-26
2020/12/21 04:31:14;;;;;;;45.70;41.30;;;10.50;99.90;;;;;;5010098;28;20598;-27
2020/12/21 04:33:44;;;;;;;44.17;39.97;;;10.50;99.90;;;;;;5009676;28;20258;-26
2020/12/21 04:36:15;;;;;;;43.58;38.97;;;10.50;99.90;;;;;;5009932;28;20207;-26
2020/12/21 04:38:46;;;;;;;43.13;39.03;;;10.50;99.90;;;;;;5009867;28;20573;-26
2020/12/21 04:41:16;;;;;;;41.85;37.55;;;10.50;99.90;;;;;;5008702;28;20682;-26
2020/12/21 04:43:47;;;;;;;40.45;36.50;;;10.30;99.90;;;;;;5009098;28;20552;-26
2020/12/21 04:46:18;;;;;;;38.85;34.75;;;10.40;99.90;;;;;;5009596;28;20188;-26
2020/12/21 04:48:49;;;;;;;41.15;36.83;;;10.30;99.90;;;;;;5009734;28;20698;-27
2020/12/21 04:51:21;;;;;;;42.70;38.20;;;10.20;99.90;;;;;;5009404;28;20298;-27
2020/12/21 04:53:53;;;;;;;37.67;33.47;;;10.30;99.90;;;;;;5009475;28;20235;-27
2020/12/21 04:56:23;;;;;;;36.47;32.65;;;10.20;99.90;;;;;;5008779;28;20529;-27
2020/12/21 04:58:53;;;;;;;38.13;34.08;;;10.10;99.90;;;;;;5009473;28;20204;-27
2020/12/21 05:01:23;;;;;;;35.90;32.10;;;10.20;99.90;;;;;;5008784;28;20222;-28
2020/12/21 05:03:53;;;;;;;34.05;30.35;;;10.20;99.90;;;;;;5008661;28;20191;-27
2020/12/21 05:06:24;;;;;;;31.17;27.88;;;10.30;99.90;;;;;;5006506;28;20199;-27
2020/12/21 05:09:06;;;;;;;79.60;35.95;;;10.20;99.90;;;;;;5007979;28;20628;-27
2020/12/21 05:11:38;;;;;;;29.38;26.48;;;10.30;99.90;;;;;;5005558;28;20698;-26
2020/12/21 05:14:09;;;;;;;34.38;28.30;;;10.30;99.90;;;;;;5008515;28;20705;-27
2020/12/21 05:16:39;;;;;;;27.95;25.13;;;10.30;99.90;;;;;;5008915;28;20247;-27
2020/12/21 05:19:21;;;;;;;25.50;22.77;;;10.30;99.90;;;;;;5009221;28;20511;-27
2020/12/21 05:21:55;;;;;;;23.33;20.92;;;10.30;99.90;;;;;;5008917;28;20311;-27
2020/12/21 05:24:26;;;;;;;24.30;21.17;;;10.30;99.90;;;;;;5008471;28;20199;-26
2020/12/21 05:26:56;;;;;;;22.38;20.08;;;10.30;99.90;;;;;;4994029;28;20192;-26
2020/12/21 05:29:27;;;;;;;25.80;22.88;;;10.30;99.90;;;;;;5008962;28;20208;-27
2020/12/21 05:31:58;;;;;;;24.08;19.42;;;10.30;99.90;;;;;;5009562;28;20196;-27
2020/12/21 05:34:29;;;;;;;20.50;18.50;;;10.30;99.90;;;;;;5006609;28;20197;-26
2020/12/21 05:37:11;;;;;;;22.90;18.65;;;10.20;99.90;;;;;;5013353;28;20192;-26
2020/12/21 05:39:51;;;;;;;21.02;18.77;;;10.30;99.90;;;;;;5012609;28;20191;-26
2020/12/21 05:42:21;;;;;;;20.80;18.70;;;10.20;99.90;;;;;;5012187;28;20220;-26
2020/12/21 05:44:56;;;;;;;21.20;18.90;;;10.20;99.90;;;;;;5012168;28;20187;-26
2020/12/21 05:47:28;;;;;;;15.88;14.38;;;10.20;99.90;;;;;;5011375;28;20274;-26
2020/12/21 05:49:58;;;;;;;16.30;14.20;;;10.20;99.90;;;;;;5013181;28;20221;-26
2020/12/21 05:52:31;;;;;;;10.38;9.38;;;10.30;99.90;;;;;;5012743;28;20192;-26
2020/12/21 05:55:06;;;;;;;9.15;8.35;;;10.30;99.90;;;;;;5011222;28;20638;-26
2020/12/21 05:57:37;;;;;;;8.65;7.85;;;10.30;99.90;;;;;;5012280;28;20187;-26
2020/12/21 06:00:09;;;;;;;7.03;6.32;;;10.20;99.90;;;;;;5012887;28;20199;-26
2020/12/21 06:02:39;;;;;;;8.18;7.38;;;10.10;99.90;;;;;;5013114;28;20579;-26
2020/12/21 06:05:11;;;;;;;7.53;6.72;;;10.10;99.90;;;;;;5011965;28;20211;-26
2020/12/21 06:07:51;;;;;;;8.85;7.95;;;10.10;99.90;;;;;;5000241;28;20224;-27
2020/12/21 06:10:22;;;;;;;6.82;6.22;;;10.10;99.90;;;;;;5008067;28;20246;-26
2020/12/21 06:12:52;;;;;;;9.50;7.32;;;10.10;99.90;;;;;;5011707;28;20298;-26
2020/12/21 06:15:25;;;;;;;9.77;7.97;;;10.00;99.90;;;;;;5000384;28;20250;-27
2020/12/21 06:17:57;;;;;;;9.85;8.18;;;10.10;99.90;;;;;;5003019;28;20198;-26
2020/12/21 06:20:27;;;;;;;9.27;8.27;;;9.90;99.90;;;;;;5009253;28;20284;-27
2020/12/21 06:22:57;;;;;;;8.30;7.50;;;9.90;99.90;;;;;;5009493;28;20237;-26
2020/12/21 06:25:28;;;;;;;6.65;6.05;;;9.90;99.90;;;;;;5010952;28;20342;-26
2020/12/21 06:28:08;;;;;;;8.13;7.43;;;9.80;99.90;;;;;;5007333;28;20191;-26
2020/12/21 06:30:38;;;;;;;7.78;6.97;;;9.90;99.90;;;;;;5003930;28;20188;-26
2020/12/21 06:33:08;;;;;;;7.85;6.93;;;9.90;99.90;;;;;;5010988;28;20275;-24
2020/12/21 06:35:44;;;;;;;7.68;6.85;;;9.90;99.90;;;;;;5011351;28;20614;-25
2020/12/21 06:38:14;;;;;;;7.28;6.68;;;9.80;99.90;;;;;;5007914;28;20595;-25
2020/12/21 06:40:45;;;;;;;7.18;6.47;;;9.90;99.90;;;;;;5011582;28;20628;-25
2020/12/21 06:43:17;;;;;;;8.82;6.45;;;9.90;99.90;;;;;;5005244;28;20196;-25
2020/12/21 06:45:47;;;;;;;5.82;5.28;;;9.90;99.90;;;;;;4991479;28;20672;-25
2020/12/21 06:48:34;;;;;;;5.00;4.60;;;9.90;99.90;;;;;;5010695;28;20188;-25
2020/12/21 06:51:14;;;;;;;3.92;3.53;;;9.90;99.90;;;;;;5004021;28;20192;-25
2020/12/21 06:53:56;;;;;;;4.43;3.10;;;9.80;99.90;;;;;;5012074;28;20227;-25
2020/12/21 06:56:28;;;;;;;3.40;3.10;;;9.80;99.90;;;;;;5008510;28;20564;-25
2020/12/21 06:58:59;;;;;;;1.63;1.52;;;9.80;99.90;;;;;;5007007;28;20206;-25
2020/12/21 07:01:30;;;;;;;1.70;1.60;;;9.80;99.90;;;;;;5010994;28;20213;-25
2020/12/21 07:04:02;;;;;;;2.95;1.90;;;9.70;99.90;;;;;;5011740;28;20603;-25
2020/12/21 07:06:33;;;;;;;2.45;2.25;;;9.70;99.90;;;;;;5011369;28;20565;-26
2020/12/21 07:09:03;;;;;;;3.25;2.95;;;9.70;99.90;;;;;;5011016;28;20203;-26
2020/12/21 07:11:34;;;;;;;4.05;2.80;;;9.70;99.90;;;;;;5011072;28;20290;-26
2020/12/21 07:14:04;;;;;;;4.18;3.72;;;9.70;99.90;;;;;;5011218;28;20192;-25
2020/12/21 07:16:34;;;;;;;3.85;3.55;;;9.70;99.90;;;;;;5010308;28;20214;-25
2020/12/21 07:19:05;;;;;;;3.80;3.50;;;9.70;99.90;;;;;;5011279;28;20188;-24
2020/12/21 07:21:35;;;;;;;4.15;3.80;;;9.70;99.90;;;;;;5011013;28;20301;-25
2020/12/21 07:24:07;;;;;;;3.92;3.53;;;9.70;99.90;;;;;;5010731;28;20196;-25
2020/12/21 07:26:39;;;;;;;5.72;4.05;;;9.80;99.90;;;;;;5010686;28;20199;-25
2020/12/21 07:29:09;;;;;;;4.97;4.25;;;9.70;99.90;;;;;;5009586;28;20201;-25
2020/12/21 07:31:40;;;;;;;4.53;4.13;;;9.60;99.90;;;;;;4996260;28;20667;-26
2020/12/21 07:34:10;;;;;;;4.70;4.30;;;9.70;99.90;;;;;;5009861;28;20270;-26
2020/12/21 07:36:40;;;;;;;6.53;4.70;;;9.70;99.90;;;;;;5009099;28;20242;-26
2020/12/21 07:39:11;;;;;;;5.63;5.07;;;9.70;99.90;;;;;;5009846;28;20276;-26
2020/12/21 07:41:45;;;;;;;4.63;4.22;;;9.70;99.90;;;;;;5010331;28;20303;-26
2020/12/21 07:44:17;;;;;;;4.88;4.50;;;9.70;99.90;;;;;;5010177;28;20208;-26
2020/12/21 07:46:55;;;;;;;4.47;3.90;;;9.70;99.90;;;;;;5003282;28;20193;-26
2020/12/21 07:49:26;;;;;;;4.00;3.60;;;9.80;99.90;;;;;;5009370;28;20302;-26
2020/12/21 07:52:00;;;;;;;5.85;4.68;;;9.70;99.90;;;;;;5010345;28;20195;-25
2020/12/21 07:54:34;;;;;;;4.75;4.22;;;9.70;99.90;;;;;;5009932;28;20218;-25
2020/12/21 07:57:07;;;;;;;4.60;4.15;;;9.70;99.90;;;;;;5001039;28;20202;-25
2020/12/21 07:59:37;;;;;;;5.22;4.78;;;9.70;99.90;;;;;;5009149;28;20568;-26
2020/12/21 08:02:08;;;;;;;5.00;4.50;;;9.70;99.90;;;;;;5010294;28;20220;-25
2020/12/21 08:04:38;;;;;;;5.70;5.20;;;9.70;99.90;;;;;;4999960;28;20636;-26
2020/12/21 08:07:09;;;;;;;5.57;5.07;;;9.70;99.90;;;;;;5010599;28;20217;-25
2020/12/21 08:09:39;;;;;;;8.00;5.90;;;9.60;99.90;;;;;;5009342;28;20200;-26
2020/12/21 08:12:11;;;;;;;6.20;5.60;;;9.70;99.90;;;;;;5002372;28;20263;-26
2020/12/21 08:14:42;;;;;;;6.50;5.80;;;9.70;99.90;;;;;;5008567;28;20197;-25
2020/12/21 08:17:13;;;;;;;6.35;5.75;;;9.60;99.90;;;;;;5010602;28;20196;-24
2020/12/21 08:19:49;;;;;;;6.85;5.63;;;9.70;99.90;;;;;;5018319;28;20191;-25
2020/12/21 08:22:21;;;;;;;6.13;5.20;;;9.70;99.90;;;;;;5010589;28;20744;-25
2020/12/21 08:25:01;;;;;;;7.00;5.80;;;9.60;99.90;;;;;;5002879;28;20214;-26
2020/12/21 08:27:32;;;;;;;6.38;5.85;;;9.70;99.90;;;;;;5008983;28;20596;-25
2020/12/21 08:30:10;;;;;;;6.60;6.00;;;9.60;99.90;;;;;;5005761;28;20617;-26
2020/12/21 08:32:40;;;;;;;5.15;4.65;;;9.70;99.90;;;;;;5009877;28;20878;-26
2020/12/21 08:35:11;;;;;;;5.82;4.93;;;9.70;99.90;;;;;;5009289;28;20191;-25
2020/12/21 08:37:42;;;;;;;5.68;5.18;;;9.70;99.90;;;;;;5003184;28;20192;-26
2020/12/21 08:40:12;;;;;;;9.13;5.90;;;9.70;99.90;;;;;;5004664;28;20192;-26
2020/12/21 08:42:44;;;;;;;7.93;6.65;;;9.60;99.90;;;;;;4997614;28;20251;-26
2020/12/21 08:45:20;;;;;;;6.47;5.97;;;9.70;99.90;;;;;;5009157;28;20192;-26
2020/12/21 08:47:50;;;;;;;6.18;5.65;;;9.70;99.90;;;;;;5009831;28;20198;-26
2020/12/21 08:50:20;;;;;;;6.03;5.50;;;9.70;99.90;;;;;;4997834;28;20508;-26
2020/12/21 08:52:50;;;;;;;6.50;6.00;;;9.70;99.90;;;;;;5009453;28;20212;-26
2020/12/21 08:55:20;;;;;;;7.13;6.40;;;9.70;99.90;;;;;;5009321;28;20298;-26
2020/12/21 08:57:52;;;;;;;7.40;5.88;;;9.70;99.90;;;;;;5009322;28;20214;-26
2020/12/21 09:00:22;;;;;;;6.57;5.88;;;9.60;99.90;;;;;;5006036;28;20595;-26
2020/12/21 09:02:52;;;;;;;6.55;5.93;;;9.70;99.90;;;;;;5003507;28;20227;-26
2020/12/21 09:05:22;;;;;;;7.18;6.20;;;9.70;99.90;;;;;;5003731;28;20655;-26
2020/12/21 09:07:52;;;;;;;7.50;6.68;;;9.70;99.90;;;;;;5009227;28;20207;-26
2020/12/21 09:10:22;;;;;;;6.80;6.25;;;9.80;99.90;;;;;;4993221;28;20259;-26
2020/12/21 09:12:53;;;;;;;8.57;7.40;;;9.80;99.90;;;;;;5004652;28;20203;-26
2020/12/21 09:15:23;;;;;;;8.13;7.32;;;9.80;99.90;;;;;;5003324;28;20278;-26
2020/12/21 09:17:53;;;;;;;6.75;6.10;;;9.90;99.90;;;;;;5009729;28;20618;-26
2020/12/21 09:20:23;;;;;;;7.80;7.00;;;9.80;99.90;;;;;;5004497;28;20207;-26
2020/12/21 09:22:53;;;;;;;8.48;7.07;;;9.80;99.90;;;;;;5001227;28;20585;-26
2020/12/21 09:25:23;;;;;;;7.28;6.57;;;9.70;99.90;;;;;;5009424;28;20257;-26
2020/12/21 09:27:54;;;;;;;7.82;7.00;;;9.70;99.90;;;;;;5008296;28;20211;-24
2020/12/21 09:30:24;;;;;;;7.40;6.70;;;9.80;99.90;;;;;;5009563;28;20195;-25
2020/12/21 09:32:54;;;;;;;7.72;7.03;;;9.80;99.90;;;;;;5007111;28;20199;-25
2020/12/21 09:35:24;;;;;;;10.80;9.80;;;9.80;99.90;;;;;;5009142;28;20199;-26
2020/12/21 09:37:54;;;;;;;12.27;11.10;;;9.80;99.90;;;;;;5009016;28;20253;-25
2020/12/21 09:40:38;;;;;;;11.20;10.07;;;9.80;99.90;;;;;;5008930;28;20188;-25
2020/12/21 09:43:09;;;;;;;10.07;9.07;;;9.80;99.90;;;;;;5008767;28;20765;-25
2020/12/21 09:45:40;;;;;;;8.98;7.88;;;9.80;99.90;;;;;;5008815;28;20203;-25
2020/12/21 09:48:10;;;;;;;8.20;7.40;;;9.80;99.90;;;;;;5008499;28;20196;-25
2020/12/21 09:50:40;;;;;;;8.35;7.55;;;9.80;99.90;;;;;;5000988;28;20198;-24
2020/12/21 09:53:11;;;;;;;9.75;6.55;;;9.70;99.90;;;;;;5008585;28;20203;-25
2020/12/21 09:55:41;;;;;;;6.20;5.60;;;9.70;99.90;;;;;;5009387;28;20192;-25
2020/12/21 09:58:12;;;;;;;8.88;7.20;;;9.70;99.90;;;;;;5008526;28;20204;-25
2020/12/21 10:00:43;;;;;;;7.43;6.60;;;9.70;99.90;;;;;;5008513;28;20273;-25
2020/12/21 10:03:13;;;;;;;6.82;6.18;;;9.80;99.90;;;;;;5008865;28;20219;-25
2020/12/21 10:05:44;;;;;;;7.70;6.53;;;9.80;99.90;;;;;;5009085;28;20200;-25
2020/12/21 10:08:14;;;;;;;9.70;7.50;;;9.70;99.90;;;;;;5009246;28;20288;-25
2020/12/21 10:10:48;;;;;;;8.65;6.72;;;9.80;99.90;;;;;;4996909;28;20227;-25
2020/12/21 10:13:19;;;;;;;7.95;7.15;;;9.80;99.90;;;;;;5007456;28;20561;-25
2020/12/21 10:15:49;;;;;;;8.38;6.70;;;9.80;99.90;;;;;;5004028;28;20227;-26
2020/12/21 10:18:19;;;;;;;6.90;6.30;;;9.80;99.90;;;;;;5008074;28;20330;-25
2020/12/21 10:20:49;;;;;;;6.35;5.75;;;9.70;99.90;;;;;;4993926;28;20371;-25
2020/12/21 10:23:19;;;;;;;5.82;5.22;;;9.70;99.90;;;;;;5008490;28;20254;-25
2020/12/21 10:25:49;;;;;;;4.93;4.47;;;9.70;99.90;;;;;;5010751;28;20227;-25
2020/12/21 10:28:21;;;;;;;4.80;4.40;;;9.70;99.90;;;;;;5009725;28;20196;-25
2020/12/21 10:30:51;;;;;;;3.70;3.40;;;9.80;99.90;;;;;;5011389;28;20191;-25
2020/12/21 10:33:21;;;;;;;4.30;3.90;;;9.80;99.90;;;;;;5012603;28;20505;-25
2020/12/21 10:35:51;;;;;;;3.45;3.15;;;9.80;99.90;;;;;;5006854;28;20200;-25
2020/12/21 10:38:21;;;;;;;4.07;2.92;;;9.80;99.90;;;;;;5007421;28;20258;-25
2020/12/21 10:40:51;;;;;;;4.65;3.65;;;9.90;99.90;;;;;;5009674;28;20197;-25
2020/12/21 10:43:22;;;;;;;2.58;2.38;;;9.90;99.90;;;;;;5003868;28;20277;-25
2020/12/21 10:45:52;;;;;;;2.92;2.72;;;9.90;99.90;;;;;;5012218;28;20338;-26
2020/12/21 10:48:22;;;;;;;4.70;4.07;;;9.90;99.90;;;;;;5012070;28;20211;-25
2020/12/21 10:50:54;;;;;;;5.40;4.03;;;9.90;99.90;;;;;;5012143;28;20294;-25
2020/12/21 10:53:24;;;;;;;3.70;3.40;;;9.90;99.90;;;;;;5011949;28;20302;-25
2020/12/21 10:55:54;;;;;;;4.05;3.65;;;10.00;99.90;;;;;;5010757;28;20687;-25
2020/12/21 10:58:26;;;;;;;4.75;4.32;;;10.00;99.90;;;;;;5010134;28;20191;-25
2020/12/21 11:00:56;;;;;;;6.65;5.20;;;10.00;99.90;;;;;;5007874;28;20270;-26
2020/12/21 11:03:26;;;;;;;4.28;3.88;;;10.00;99.90;;;;;;5009933;28;20713;-25
2020/12/21 11:05:56;;;;;;;6.05;4.90;;;10.00;99.90;;;;;;5011362;28;20200;-26
2020/12/21 11:08:26;;;;;;;6.05;5.40;;;10.00;99.90;;;;;;5011303;28;20207;-25
2020/12/21 11:10:56;;;;;;;6.53;5.65;;;10.00;99.90;;;;;;5010447;28;20797;-25
2020/12/21 11:13:27;;;;;;;6.70;6.07;;;10.00;99.90;;;;;;5011453;28;20691;-26
2020/12/21 11:15:57;;;;;;;6.70;6.07;;;10.00;99.90;;;;;;5010640;28;20233;-25
2020/12/21 11:18:27;;;;;;;6.57;5.97;;;9.90;99.90;;;;;;5002349;28;20219;-25
2020/12/21 11:20:59;;;;;;;5.95;5.43;;;10.00;99.90;;;;;;5010587;28;20622;-26
2020/12/21 11:23:29;;;;;;;6.97;6.28;;;10.00;99.90;;;;;;5008409;28;20281;-26
2020/12/21 11:25:59;;;;;;;7.03;6.38;;;10.00;99.90;;;;;;5010577;28;20275;-25
2020/12/21 11:28:30;;;;;;;9.63;6.70;;;10.00;99.90;;;;;;5005704;28;20192;-25
2020/12/21 11:31:00;;;;;;;6.10;5.50;;;10.10;99.90;;;;;;5006112;28;20218;-25
2020/12/21 11:33:31;;;;;;;7.55;6.85;;;10.10;99.90;;;;;;5009820;28;20586;-25
2020/12/21 11:36:01;;;;;;;7.75;6.95;;;10.10;99.90;;;;;;5003213;28;20272;-26
2020/12/21 11:38:33;;;;;;;6.57;5.97;;;10.20;99.90;;;;;;5002794;28;20520;-26
2020/12/21 11:41:04;;;;;;;7.88;7.07;;;10.20;99.90;;;;;;5008811;28;20195;-25
2020/12/21 11:43:35;;;;;;;7.15;6.45;;;10.20;99.90;;;;;;5010416;28;20687;-25
2020/12/21 11:46:05;;;;;;;7.53;6.80;;;10.30;99.90;;;;;;5010844;28;20550;-26
2020/12/21 11:48:35;;;;;;;7.03;6.32;;;10.30;99.90;;;;;;5010806;28;20337;-26
2020/12/21 11:51:06;;;;;;;7.35;6.65;;;10.40;99.90;;;;;;5010344;28;20302;-26
2020/12/21 11:53:36;;;;;;;7.10;6.40;;;10.40;99.90;;;;;;5003035;28;20260;-26
2020/12/21 11:56:07;;;;;;;7.35;6.28;;;10.40;99.90;;;;;;4995857;28;20715;-26
2020/12/21 11:58:38;;;;;;;7.22;6.03;;;10.30;99.90;;;;;;5001226;28;20359;-25
2020/12/21 12:01:08;;;;;;;6.57;5.57;;;10.40;99.90;;;;;;5004068;28;20744;-26
2020/12/21 12:03:38;;;;;;;7.78;6.93;;;10.30;99.90;;;;;;5010293;28;20227;-26
2020/12/21 12:06:08;;;;;;;7.15;6.45;;;10.30;99.90;;;;;;4995920;28;20195;-26
2020/12/21 12:08:38;;;;;;;7.82;6.80;;;10.40;99.90;;;;;;5009489;28;20196;-26
2020/12/21 12:11:12;;;;;;;6.93;6.10;;;10.40;99.90;;;;;;5009244;28;20241;-26
2020/12/21 12:13:43;;;;;;;7.88;7.07;;;10.40;99.90;;;;;;5009192;28;20194;-25
2020/12/21 12:16:19;;;;;;;6.78;6.07;;;10.50;99.90;;;;;;5010331;28;20196;-25
2020/12/21 12:18:49;;;;;;;6.90;6.22;;;10.50;99.90;;;;;;4999675;28;20194;-26
2020/12/21 12:21:23;;;;;;;6.15;5.28;;;10.50;99.90;;;;;;5006436;28;20604;-26
2020/12/21 12:23:53;;;;;;;6.80;6.10;;;10.60;99.90;;;;;;5008442;28;20196;-26
2020/12/21 12:26:24;;;;;;;7.57;6.10;;;10.50;99.90;;;;;;5009377;28;20189;-26
2020/12/21 12:28:56;;;;;;;5.43;4.93;;;10.60;99.90;;;;;;5000128;28;20197;-26
2020/12/21 12:31:26;;;;;;;6.63;6.03;;;10.60;99.90;;;;;;5007300;28;20341;-25
2020/12/21 12:33:56;;;;;;;6.70;6.00;;;10.60;99.90;;;;;;5009958;28;20266;-26
2020/12/21 12:36:28;;;;;;;6.88;6.18;;;10.70;99.90;;;;;;5009808;28;20212;-26
2020/12/21 12:38:58;;;;;;;6.95;6.25;;;10.80;99.90;;;;;;5009634;28;20192;-26
2020/12/21 12:41:28;;;;;;;6.32;5.70;;;10.80;99.90;;;;;;5008919;28;20604;-26
2020/12/21 12:43:59;;;;;;;5.88;5.30;;;10.80;99.90;;;;;;4998728;28;20200;-25
2020/12/21 12:46:29;;;;;;;6.43;5.82;;;10.90;99.90;;;;;;5004678;28;20200;-26
2020/12/21 12:48:59;;;;;;;6.25;5.65;;;10.90;99.90;;;;;;5010051;28;20200;-26
2020/12/21 12:51:29;;;;;;;6.90;6.20;;;11.00;99.90;;;;;;5009310;28;20200;-26
2020/12/21 12:53:59;;;;;;;5.95;5.00;;;11.10;99.90;;;;;;5003066;28;20224;-25
2020/12/21 12:56:29;;;;;;;6.35;5.47;;;11.10;99.90;;;;;;5009332;28;20199;-26
2020/12/21 12:59:00;;;;;;;6.85;5.22;;;11.10;99.90;;;;;;5008967;28;20214;-26
2020/12/21 13:01:33;;;;;;;5.90;5.30;;;11.20;99.90;;;;;;5009805;28;20667;-26
2020/12/21 13:04:03;;;;;;;4.53;4.13;;;11.30;99.90;;;;;;5009085;28;20246;-26